Time;durP1;ratioP1;P1;durP2;ratioP2;P2;SDS_P1;SDS_P2;PMS_P1;PMS_P2;Temp;Humidity;BMP_temperature;BMP_pressure;BME280_temperature;BME280_humidity;BME280_pressure;Samples;Min_cycle;Max_cycle;Signal;HPM_P1;HPM_P2
2022/12/17 13:06:42;;;;;;;44.10;24.50;;;-2.10;99.90;;;;;;5109962;28;20441;-59
2022/12/17 13:09:37;;;;;;;42.67;27.90;;;-2.10;99.90;;;;;;5111108;28;20474;-57
2022/12/17 13:12:29;;;;;;;49.67;28.20;;;-2.00;99.90;;;;;;5104666;28;20992;-56
2022/12/17 13:15:11;;;;;;;46.13;27.43;;;-1.80;99.90;;;;;;5110203;28;20511;-56
2022/12/17 13:17:40;;;;;;;37.20;26.07;;;-1.50;99.90;;;;;;5112964;28;20517;-56
2022/12/17 13:20:38;;;;;;;36.80;25.30;;;-1.30;99.90;;;;;;5098248;28;20490;-54
2022/12/17 13:23:25;;;;;;;37.03;25.20;;;-0.80;99.90;;;;;;5026715;28;20540;-56
2022/12/17 13:26:13;;;;;;;37.20;26.90;;;-0.90;99.90;;;;;;5102106;28;20454;-60
2022/12/17 13:28:41;;;;;;;37.67;26.43;;;-1.30;99.90;;;;;;5099987;28;20514;-59
2022/12/17 13:31:17;;;;;;;46.90;28.63;;;-1.50;99.90;;;;;;5109294;28;20924;-58
2022/12/17 13:33:53;;;;;;;45.20;26.50;;;-1.80;99.90;;;;;;5110299;28;20510;-58
2022/12/17 13:36:30;;;;;;;50.97;28.73;;;-1.80;99.90;;;;;;5101608;28;20439;-57
2022/12/17 13:39:03;;;;;;;42.57;27.73;;;-1.70;99.90;;;;;;5109006;28;20465;-56
2022/12/17 13:41:32;;;;;;;48.53;28.50;;;-1.70;99.90;;;;;;5112330;28;20913;-58
2022/12/17 13:44:03;;;;;;;48.07;28.33;;;-1.70;99.90;;;;;;5105364;28;20848;-53
2022/12/17 13:46:41;;;;;;;49.80;27.33;;;-1.80;99.90;;;;;;5104275;28;20438;-56
2022/12/17 13:49:18;;;;;;;35.47;23.67;;;-1.90;99.90;;;;;;5114442;28;20514;-54
2022/12/17 13:51:47;;;;;;;42.50;26.20;;;-1.90;99.90;;;;;;5101802;28;20447;-56
2022/12/17 13:54:16;;;;;;;39.70;27.47;;;-1.90;99.90;;;;;;5094732;28;20482;-60
2022/12/17 13:56:44;;;;;;;45.03;26.20;;;-1.90;99.90;;;;;;5110317;28;20480;-59
2022/12/17 13:59:19;;;;;;;48.13;28.90;;;-2.20;99.90;;;;;;5109935;28;20505;-56
2022/12/17 14:01:47;;;;;;;42.90;24.80;;;-2.40;99.90;;;;;;5113237;28;20445;-57
2022/12/17 14:04:25;;;;;;;44.40;25.33;;;-2.60;99.90;;;;;;5095738;28;20448;-61
2022/12/17 14:06:55;;;;;;;43.70;25.73;;;-2.70;99.90;;;;;;5092975;28;20480;-57
2022/12/17 14:09:29;;;;;;;38.57;27.03;;;-2.60;99.90;;;;;;5093442;28;20468;-52
2022/12/17 14:14:44;;;;;;;43.03;26.70;;;-2.50;99.90;;;;;;5094289;28;20395;-55
2022/12/17 14:17:18;;;;;;;44.53;28.07;;;-2.40;99.90;;;;;;5095138;28;21001;-51
2022/12/17 14:19:46;;;;;;;43.33;27.93;;;-2.50;99.90;;;;;;5094798;28;21032;-53
2022/12/17 14:22:20;;;;;;;48.73;26.20;;;-2.70;99.90;;;;;;5095878;28;20641;-51
2022/12/17 14:24:47;;;;;;;40.70;27.00;;;-2.50;99.90;;;;;;5094851;28;20431;-51
2022/12/17 14:27:26;;;;;;;47.03;32.20;;;-2.40;99.90;;;;;;5095436;28;20451;-51
2022/12/17 14:29:54;;;;;;;47.73;27.67;;;-2.40;99.90;;;;;;5094261;28;21019;-53
2022/12/17 14:32:24;;;;;;;48.80;29.70;;;-2.30;99.90;;;;;;5094803;28;20505;-58
2022/12/17 14:34:51;;;;;;;38.20;27.63;;;-2.30;99.90;;;;;;5094562;28;20820;-57
2022/12/17 14:37:24;;;;;;;42.80;26.67;;;-2.40;99.90;;;;;;5095489;28;20926;-59
2022/12/17 14:39:55;;;;;;;41.90;28.50;;;-2.40;99.90;;;;;;5094447;28;20491;-59
2022/12/17 14:42:25;;;;;;;42.30;26.30;;;-2.30;99.90;;;;;;5097036;28;20932;-61
2022/12/17 14:44:54;;;;;;;44.30;29.47;;;-2.40;99.90;;;;;;5115300;28;20442;-56
2022/12/17 14:47:24;;;;;;;46.90;28.43;;;-2.30;99.90;;;;;;5115306;28;20450;-61
2022/12/17 14:49:58;;;;;;;43.37;27.97;;;-2.50;99.90;;;;;;5115236;28;20519;-60
2022/12/17 14:52:36;;;;;;;48.27;27.83;;;-2.60;99.90;;;;;;5114317;28;20430;-60
2022/12/17 14:55:22;;;;;;;47.63;28.30;;;-2.60;99.90;;;;;;5114370;28;20462;-60
2022/12/17 14:57:49;;;;;;;44.20;27.77;;;-2.60;99.90;;;;;;5113775;28;20435;-60
2022/12/17 15:00:17;;;;;;;44.33;27.30;;;-2.70;99.90;;;;;;5113226;28;20515;-60
2022/12/17 15:02:51;;;;;;;46.00;29.60;;;-2.60;99.90;;;;;;5114203;28;20438;-59
2022/12/17 15:05:18;;;;;;;45.30;28.23;;;-2.50;99.90;;;;;;5113445;28;20431;-60
2022/12/17 15:07:47;;;;;;;45.73;29.03;;;-2.50;99.90;;;;;;5114725;28;20843;-61
2022/12/17 15:10:19;;;;;;;47.63;29.50;;;-2.50;99.90;;;;;;5115213;28;20975;-57
2022/12/17 15:12:47;;;;;;;44.47;28.33;;;-2.40;99.90;;;;;;5114546;28;20471;-60
2022/12/17 15:15:15;;;;;;;43.60;28.20;;;-2.50;99.90;;;;;;5114338;28;20458;-58
2022/12/17 15:17:43;;;;;;;44.33;28.27;;;-2.50;99.90;;;;;;5106970;28;20454;-58
2022/12/17 15:20:17;;;;;;;49.03;30.73;;;-2.60;99.90;;;;;;5114160;28;20474;-58
2022/12/17 15:22:44;;;;;;;42.20;26.40;;;-2.60;99.90;;;;;;5114114;28;20671;-58
2022/12/17 15:25:15;;;;;;;46.07;31.00;;;-2.60;99.90;;;;;;5113998;28;20458;-57
2022/12/17 15:27:42;;;;;;;57.47;31.60;;;-2.60;99.90;;;;;;5114724;28;20462;-60
2022/12/17 15:30:14;;;;;;;45.97;29.40;;;-2.60;99.90;;;;;;5114052;28;20834;-60
2022/12/17 15:32:41;;;;;;;46.60;28.27;;;-2.60;99.90;;;;;;5112439;28;20431;-60
2022/12/17 15:35:09;;;;;;;47.70;28.73;;;-2.70;99.90;;;;;;5113354;28;20537;-60
2022/12/17 15:37:37;;;;;;;49.07;28.73;;;-2.70;99.90;;;;;;5114108;28;20454;-60
2022/12/17 15:40:05;;;;;;;40.47;26.80;;;-2.80;99.90;;;;;;5112444;28;20909;-60
2022/12/17 15:45:18;;;;;;;51.83;31.17;;;-2.70;99.90;;;;;;5114013;28;20410;-52
2022/12/17 15:47:45;;;;;;;53.63;28.47;;;-2.70;99.90;;;;;;5114342;28;20478;-57
2022/12/17 15:50:16;;;;;;;46.90;30.37;;;-2.70;99.90;;;;;;5114181;28;20515;-58
2022/12/17 15:52:44;;;;;;;49.77;29.37;;;-2.70;99.90;;;;;;5114409;28;20464;-57
2022/12/17 15:55:15;;;;;;;47.43;31.50;;;-2.70;99.90;;;;;;5114670;28;20442;-56
2022/12/17 15:57:44;;;;;;;50.03;29.30;;;-2.80;99.90;;;;;;5114415;28;20465;-57
2022/12/17 16:00:13;;;;;;;55.27;32.77;;;-2.80;99.90;;;;;;5113594;28;20466;-57
2022/12/17 16:02:40;;;;;;;49.27;30.87;;;-2.90;99.90;;;;;;5113991;28;20490;-57
2022/12/17 16:05:39;;;;;;;48.27;30.40;;;-2.90;99.90;;;;;;5114425;28;20798;-57
2022/12/17 16:08:31;;;;;;;50.83;31.83;;;-3.00;99.90;;;;;;5114317;28;20507;-57
2022/12/17 16:11:04;;;;;;;45.67;31.67;;;-3.00;99.90;;;;;;5113016;28;20477;-57
2022/12/17 16:13:33;;;;;;;47.33;30.80;;;-3.00;99.90;;;;;;5113436;28;20484;-57
2022/12/17 16:16:00;;;;;;;54.30;33.03;;;-3.10;99.90;;;;;;5113968;28;20492;-57
2022/12/17 16:18:28;;;;;;;49.97;33.17;;;-3.20;99.90;;;;;;5114243;28;20443;-58
2022/12/17 16:20:55;;;;;;;54.10;30.90;;;-3.20;99.90;;;;;;5114105;28;20462;-57
2022/12/17 16:23:22;;;;;;;53.87;31.90;;;-3.10;99.90;;;;;;5114109;28;20442;-58
2022/12/17 16:25:57;;;;;;;49.27;30.93;;;-3.20;99.90;;;;;;5114104;28;20482;-57
2022/12/17 16:28:24;;;;;;;54.10;30.57;;;-3.40;99.90;;;;;;5114099;28;20432;-58
2022/12/17 16:31:00;;;;;;;51.63;30.77;;;-3.40;99.90;;;;;;5113990;28;20960;-57
2022/12/17 16:33:31;;;;;;;51.97;31.00;;;-3.30;99.90;;;;;;5113915;28;20862;-57
2022/12/17 16:35:58;;;;;;;58.53;33.30;;;-3.20;99.90;;;;;;5113950;28;20483;-57
2022/12/17 16:38:25;;;;;;;54.40;32.30;;;-3.30;99.90;;;;;;5114135;28;20493;-58
2022/12/17 16:40:55;;;;;;;56.57;35.23;;;-3.30;99.90;;;;;;5113966;28;20515;-57
2022/12/17 16:43:22;;;;;;;53.27;33.30;;;-3.30;99.90;;;;;;5113893;28;20521;-57
2022/12/17 16:45:51;;;;;;;61.57;31.63;;;-3.30;99.90;;;;;;5113565;28;20442;-57
2022/12/17 16:48:21;;;;;;;58.87;34.40;;;-3.30;99.90;;;;;;5113752;28;20869;-58
2022/12/17 16:50:49;;;;;;;49.97;31.97;;;-3.30;99.90;;;;;;5113460;28;20466;-58
2022/12/17 16:53:18;;;;;;;51.10;29.23;;;-3.30;99.90;;;;;;5113240;28;20923;-57
2022/12/17 16:55:46;;;;;;;52.80;32.53;;;-3.30;99.90;;;;;;5113382;28;20478;-57
2022/12/17 16:58:14;;;;;;;57.13;30.10;;;-3.30;99.90;;;;;;5113689;28;20438;-58
2022/12/17 17:00:42;;;;;;;56.30;33.20;;;-3.30;99.90;;;;;;5113455;28;20494;-58
2022/12/17 17:03:09;;;;;;;55.70;30.73;;;-3.40;99.90;;;;;;5113652;28;20454;-58
2022/12/17 17:05:40;;;;;;;53.90;32.33;;;-3.30;99.90;;;;;;5113604;28;20446;-58
2022/12/17 17:08:07;;;;;;;54.00;35.27;;;-3.40;99.90;;;;;;5113852;28;20553;-58
2022/12/17 17:10:36;;;;;;;55.60;31.07;;;-3.40;99.90;;;;;;5113518;28;20550;-57
2022/12/17 17:13:04;;;;;;;54.97;33.13;;;-3.50;99.90;;;;;;5117319;28;20942;-58
2022/12/17 17:15:32;;;;;;;53.13;32.43;;;-3.50;99.90;;;;;;5117588;28;20474;-58
2022/12/17 17:17:59;;;;;;;54.53;31.27;;;-3.40;99.90;;;;;;5117281;28;20945;-57
2022/12/17 17:20:30;;;;;;;48.37;31.10;;;-3.40;99.90;;;;;;5117619;28;20547;-58
2022/12/17 17:22:59;;;;;;;49.13;30.03;;;-3.60;99.90;;;;;;5117205;28;20435;-57
2022/12/17 17:25:27;;;;;;;52.17;30.93;;;-3.50;99.90;;;;;;5117170;28;20917;-57
2022/12/17 17:27:54;;;;;;;63.07;35.30;;;-3.50;99.90;;;;;;5117560;28;20457;-58
2022/12/17 17:30:22;;;;;;;50.80;32.13;;;-3.50;99.90;;;;;;5117107;28;20996;-57
2022/12/17 17:32:49;;;;;;;64.80;34.10;;;-3.50;99.90;;;;;;5117395;28;20529;-58
2022/12/17 17:35:16;;;;;;;56.80;33.40;;;-3.60;99.90;;;;;;5116835;28;21083;-57
2022/12/17 17:37:44;;;;;;;60.80;33.47;;;-3.70;99.90;;;;;;5117395;28;20482;-57
2022/12/17 17:40:14;;;;;;;55.80;32.47;;;-3.70;99.90;;;;;;5116658;28;21102;-57
2022/12/17 17:42:41;;;;;;;50.47;32.03;;;-3.60;99.90;;;;;;5116922;28;20447;-57
2022/12/17 17:45:08;;;;;;;61.90;34.90;;;-3.50;99.90;;;;;;5116819;28;20541;-57
2022/12/17 17:47:36;;;;;;;57.97;32.00;;;-3.50;99.90;;;;;;5116751;28;20439;-57
2022/12/17 17:50:03;;;;;;;61.50;31.97;;;-3.60;99.90;;;;;;5116921;28;20471;-57
2022/12/17 17:52:31;;;;;;;58.37;34.50;;;-3.60;99.90;;;;;;5116924;28;20446;-57
2022/12/17 17:54:58;;;;;;;52.23;33.70;;;-3.60;99.90;;;;;;5116822;28;21054;-57
2022/12/17 17:57:27;;;;;;;54.57;33.07;;;-3.60;99.90;;;;;;5116777;28;20925;-58
2022/12/17 17:59:54;;;;;;;61.13;36.20;;;-3.60;99.90;;;;;;5116354;28;20505;-58
2022/12/17 18:02:21;;;;;;;58.77;33.83;;;-3.80;99.90;;;;;;5116931;28;20978;-57
2022/12/17 18:04:49;;;;;;;66.03;35.40;;;-3.70;99.90;;;;;;5116385;28;20438;-57
2022/12/17 18:07:16;;;;;;;53.43;32.83;;;-3.70;99.90;;;;;;5116886;28;20551;-57
2022/12/17 18:09:43;;;;;;;62.33;31.90;;;-3.90;99.90;;;;;;5116651;28;20471;-57
2022/12/17 18:14:53;;;;;;;52.07;31.73;;;-3.70;99.90;;;;;;5115275;28;20462;-57
2022/12/17 18:17:20;;;;;;;54.20;31.67;;;-3.60;99.90;;;;;;5116225;28;20984;-57
2022/12/17 18:19:49;;;;;;;63.57;36.93;;;-3.60;99.90;;;;;;5116397;28;20471;-57
2022/12/17 18:22:16;;;;;;;64.33;33.63;;;-3.70;99.90;;;;;;5116272;28;20497;-57
2022/12/17 18:24:43;;;;;;;60.47;34.03;;;-3.70;99.90;;;;;;5116600;28;20443;-57
2022/12/17 18:27:10;;;;;;;57.77;33.70;;;-3.70;99.90;;;;;;5116083;28;20443;-57
2022/12/17 18:29:39;;;;;;;61.60;34.37;;;-3.70;99.90;;;;;;5116219;28;20519;-57
2022/12/17 18:32:08;;;;;;;60.53;32.33;;;-3.80;99.90;;;;;;5116234;28;20451;-58
2022/12/17 18:34:35;;;;;;;57.33;33.40;;;-3.80;99.90;;;;;;5115999;28;20474;-57
2022/12/17 18:37:04;;;;;;;50.97;31.00;;;-3.80;99.90;;;;;;5115953;28;20454;-57
2022/12/17 18:39:31;;;;;;;71.37;36.30;;;-3.80;99.90;;;;;;5115586;28;20474;-59
2022/12/17 18:44:43;;;;;;;57.97;31.70;;;-3.90;99.90;;;;;;5115733;28;20403;-57
2022/12/17 18:47:12;;;;;;;57.47;33.50;;;-4.00;99.90;;;;;;5115747;28;20447;-57
2022/12/17 18:49:39;;;;;;;68.90;34.50;;;-3.90;99.90;;;;;;5116025;28;20509;-57
2022/12/17 18:52:07;;;;;;;57.83;31.40;;;-3.90;99.90;;;;;;5115758;28;20963;-57
2022/12/17 18:54:34;;;;;;;62.50;33.80;;;-4.00;99.90;;;;;;5115741;28;20506;-57
2022/12/17 18:57:02;;;;;;;63.13;35.23;;;-4.10;99.90;;;;;;5115914;28;20510;-57
2022/12/17 18:59:30;;;;;;;58.87;34.60;;;-4.20;99.90;;;;;;5115714;28;20972;-57
2022/12/17 19:01:58;;;;;;;63.30;36.83;;;-4.20;99.90;;;;;;5115651;28;20508;-57
2022/12/17 19:04:27;;;;;;;59.50;33.20;;;-4.10;99.90;;;;;;5115249;28;20529;-57
2022/12/17 19:06:55;;;;;;;52.97;31.00;;;-4.00;99.90;;;;;;5115205;28;20454;-57
2022/12/17 19:09:24;;;;;;;49.70;31.10;;;-4.00;99.90;;;;;;5115458;28;20459;-56
2022/12/17 19:11:52;;;;;;;59.27;35.90;;;-4.10;99.90;;;;;;5115515;28;20461;-57
2022/12/17 19:14:21;;;;;;;52.40;32.20;;;-4.10;99.90;;;;;;5115317;28;20478;-56
2022/12/17 19:16:49;;;;;;;61.33;36.10;;;-4.10;99.90;;;;;;5115386;28;20453;-56
2022/12/17 19:19:17;;;;;;;62.37;35.00;;;-4.10;99.90;;;;;;5114931;28;20894;-57
2022/12/17 19:21:47;;;;;;;57.80;32.63;;;-4.10;99.90;;;;;;5115530;28;20809;-57
2022/12/17 19:24:17;;;;;;;63.10;36.83;;;-4.20;99.90;;;;;;5115247;28;20491;-57
2022/12/17 19:26:45;;;;;;;64.47;33.67;;;-4.30;99.90;;;;;;5115068;28;20442;-57
2022/12/17 19:29:13;;;;;;;60.20;34.40;;;-4.40;99.90;;;;;;5115395;28;20879;-57
2022/12/17 19:31:41;;;;;;;55.90;33.03;;;-4.50;99.90;;;;;;5115176;28;20808;-56
2022/12/17 19:34:11;;;;;;;53.33;33.90;;;-4.60;99.90;;;;;;5114074;28;21006;-57
2022/12/17 19:36:40;;;;;;;63.77;37.07;;;-4.50;99.90;;;;;;5114655;28;20484;-56
2022/12/17 19:39:12;;;;;;;61.37;34.73;;;-4.60;99.90;;;;;;5114394;28;20474;-57
2022/12/17 19:41:39;;;;;;;65.43;33.30;;;-4.60;99.90;;;;;;5114622;28;20435;-57
2022/12/17 19:44:11;;;;;;;57.67;32.23;;;-4.60;99.90;;;;;;5114671;28;20442;-57
2022/12/17 19:46:38;;;;;;;59.70;32.97;;;-4.60;99.90;;;;;;5114658;28;20423;-57
2022/12/17 19:49:09;;;;;;;59.07;30.10;;;-4.60;99.90;;;;;;5114802;28;20447;-57
2022/12/17 19:51:37;;;;;;;53.73;33.07;;;-4.50;99.90;;;;;;5114332;28;20990;-57
2022/12/17 19:54:05;;;;;;;52.13;31.63;;;-4.50;99.90;;;;;;5114371;28;20880;-57
2022/12/17 19:56:34;;;;;;;54.17;33.00;;;-4.50;99.90;;;;;;5114218;28;20475;-57
2022/12/17 19:59:03;;;;;;;51.40;29.47;;;-4.40;99.90;;;;;;5114292;28;20442;-57
2022/12/17 20:01:32;;;;;;;67.73;31.30;;;-4.50;99.90;;;;;;5114351;28;20489;-57
2022/12/17 20:04:00;;;;;;;51.93;30.17;;;-4.60;99.90;;;;;;5114634;28;20511;-56
2022/12/17 20:06:31;;;;;;;51.27;30.83;;;-4.60;99.90;;;;;;5113987;28;20486;-56
2022/12/17 20:08:59;;;;;;;48.47;31.93;;;-4.60;99.90;;;;;;5113884;28;20492;-56
2022/12/17 20:11:32;;;;;;;49.30;27.60;;;-4.70;99.90;;;;;;5114105;28;20450;-56
2022/12/17 20:14:04;;;;;;;43.63;30.67;;;-4.70;99.90;;;;;;5114226;28;20888;-57
2022/12/17 20:16:33;;;;;;;48.97;30.50;;;-4.80;99.90;;;;;;5114041;28;20434;-57
2022/12/17 20:19:02;;;;;;;51.20;30.07;;;-4.90;99.90;;;;;;5114015;28;20604;-57
2022/12/17 20:21:29;;;;;;;50.77;31.63;;;-4.90;99.90;;;;;;5113879;28;20472;-57
2022/12/17 20:23:56;;;;;;;49.93;31.57;;;-4.80;99.90;;;;;;5114036;28;20454;-57
2022/12/17 20:26:24;;;;;;;50.50;29.33;;;-4.90;99.90;;;;;;5114116;28;20533;-56
2022/12/17 20:28:51;;;;;;;47.43;30.60;;;-4.80;99.90;;;;;;5114129;28;20446;-56
2022/12/17 20:31:20;;;;;;;55.13;32.03;;;-4.70;99.90;;;;;;5113900;28;20971;-57
2022/12/17 20:33:48;;;;;;;54.10;29.13;;;-4.70;99.90;;;;;;5114142;28;20446;-57
2022/12/17 20:36:16;;;;;;;52.53;30.87;;;-4.70;99.90;;;;;;5095795;28;20509;-57
2022/12/17 20:38:45;;;;;;;53.53;31.20;;;-4.80;99.90;;;;;;5114095;28;20490;-57
2022/12/17 20:41:13;;;;;;;46.13;31.20;;;-4.90;99.90;;;;;;5113621;28;20462;-57
2022/12/17 20:43:41;;;;;;;61.17;30.07;;;-5.00;99.90;;;;;;5113672;28;20446;-57
2022/12/17 20:46:09;;;;;;;56.40;30.20;;;-5.00;99.90;;;;;;5118546;28;20989;-57
2022/12/17 20:48:39;;;;;;;53.73;30.23;;;-5.10;99.90;;;;;;5120514;28;20446;-57
2022/12/17 20:51:10;;;;;;;46.10;27.40;;;-5.00;99.90;;;;;;5120731;28;20549;-59
2022/12/17 20:53:38;;;;;;;61.73;29.57;;;-5.10;99.90;;;;;;5120457;28;20427;-57
2022/12/17 20:56:08;;;;;;;52.43;28.23;;;-5.00;99.90;;;;;;5120310;28;20478;-57
2022/12/17 20:58:35;;;;;;;51.93;30.97;;;-5.00;99.90;;;;;;5120683;28;20447;-57
2022/12/17 21:01:04;;;;;;;59.60;30.90;;;-4.90;99.90;;;;;;5120318;28;20865;-57
2022/12/17 21:03:32;;;;;;;51.77;28.43;;;-4.90;99.90;;;;;;5120490;28;20450;-57
2022/12/17 21:06:12;;;;;;;52.27;29.37;;;-4.80;99.90;;;;;;5120506;28;20466;-57
2022/12/17 21:08:41;;;;;;;58.13;29.43;;;-4.70;99.90;;;;;;5120827;28;20544;-57
2022/12/17 21:11:08;;;;;;;50.47;30.90;;;-4.60;99.90;;;;;;5120560;28;20523;-58
2022/12/17 21:13:36;;;;;;;51.53;29.30;;;-4.80;99.90;;;;;;5120252;28;20480;-57
2022/12/17 21:16:06;;;;;;;54.67;29.97;;;-4.80;99.90;;;;;;5120113;28;20478;-57
2022/12/17 21:18:34;;;;;;;46.97;27.50;;;-4.70;99.90;;;;;;5120617;28;20442;-57
2022/12/17 21:21:03;;;;;;;54.87;28.17;;;-4.70;99.90;;;;;;5120474;28;20466;-57
2022/12/17 21:23:33;;;;;;;51.40;28.40;;;-4.60;99.90;;;;;;5120560;28;20849;-57
2022/12/17 21:26:02;;;;;;;62.63;31.30;;;-4.60;99.90;;;;;;5120204;28;20445;-57
2022/12/17 21:28:30;;;;;;;48.03;31.97;;;-4.60;99.90;;;;;;5120144;28;20477;-57
2022/12/17 21:30:57;;;;;;;53.77;29.03;;;-4.70;99.90;;;;;;5120282;28;21049;-56
2022/12/17 21:33:24;;;;;;;62.03;31.20;;;-4.80;99.90;;;;;;5120481;28;20453;-57
2022/12/17 21:35:58;;;;;;;50.10;28.87;;;-4.90;99.90;;;;;;5120321;28;20535;-57
2022/12/17 21:38:26;;;;;;;56.07;31.60;;;-4.80;99.90;;;;;;5120033;28;20785;-57
2022/12/17 21:40:55;;;;;;;56.20;31.30;;;-4.80;99.90;;;;;;5099395;28;20475;-57
2022/12/17 21:43:22;;;;;;;45.73;29.50;;;-5.00;99.90;;;;;;5099916;28;20934;-57
2022/12/17 21:45:55;;;;;;;54.63;30.17;;;-5.10;99.90;;;;;;5099736;28;20466;-57
2022/12/17 21:48:23;;;;;;;50.93;29.80;;;-4.90;99.90;;;;;;5100069;28;20531;-57
2022/12/17 21:50:50;;;;;;;53.73;30.53;;;-4.80;99.90;;;;;;5099446;28;20467;-57
2022/12/17 21:53:17;;;;;;;50.17;27.50;;;-4.80;99.90;;;;;;5099396;28;21122;-57
2022/12/17 21:55:44;;;;;;;46.13;27.57;;;-4.80;99.90;;;;;;5099488;28;20479;-57
2022/12/17 21:58:14;;;;;;;51.90;29.17;;;-4.80;99.90;;;;;;5095655;28;20447;-58
2022/12/17 22:00:41;;;;;;;45.37;28.90;;;-4.80;99.90;;;;;;5096111;28;20471;-58
2022/12/17 22:03:09;;;;;;;45.87;30.50;;;-4.70;99.90;;;;;;5096154;28;20454;-58
2022/12/17 22:05:36;;;;;;;46.27;28.87;;;-4.70;99.90;;;;;;5095956;28;20443;-57
2022/12/17 22:08:04;;;;;;;50.10;29.20;;;-4.70;99.90;;;;;;5095958;28;20553;-57
2022/12/17 22:10:32;;;;;;;43.67;27.37;;;-4.80;99.90;;;;;;5095936;28;20463;-58
2022/12/17 22:15:44;;;;;;;51.57;32.00;;;-4.80;99.90;;;;;;5064758;28;20525;-58
2022/12/17 22:18:12;;;;;;;54.90;29.90;;;-5.00;99.90;;;;;;5095870;28;20449;-57
2022/12/17 22:20:39;;;;;;;58.20;32.00;;;-4.80;99.90;;;;;;5095809;28;20470;-57
2022/12/17 22:23:06;;;;;;;61.47;28.77;;;-4.80;99.90;;;;;;5095878;28;20934;-57
2022/12/17 22:25:37;;;;;;;50.77;31.10;;;-4.80;99.90;;;;;;5096233;28;20516;-57
2022/12/17 22:28:05;;;;;;;46.17;30.13;;;-4.90;99.90;;;;;;5095742;28;20467;-57
2022/12/17 22:33:18;;;;;;;47.23;28.73;;;-4.70;99.90;;;;;;5095676;28;20530;-58
2022/12/17 22:35:46;;;;;;;53.70;30.23;;;-4.70;99.90;;;;;;5095640;28;20483;-58
2022/12/17 22:38:13;;;;;;;54.07;31.63;;;-4.70;99.90;;;;;;5095374;28;20491;-58
2022/12/17 22:40:40;;;;;;;53.97;32.27;;;-4.60;99.90;;;;;;5113763;28;20482;-58
2022/12/17 22:46:06;;;;;;;49.60;28.10;;;-4.70;99.90;;;;;;5053117;28;20861;-57
2022/12/17 22:48:35;;;;;;;57.33;32.70;;;-4.60;99.90;;;;;;5100825;28;20503;-58
2022/12/17 22:51:09;;;;;;;50.17;28.70;;;-4.50;99.90;;;;;;5115634;28;20983;-58
2022/12/17 22:53:36;;;;;;;52.23;29.60;;;-4.50;99.90;;;;;;5115916;28;20906;-57
2022/12/17 22:56:06;;;;;;;55.73;30.83;;;-4.60;99.90;;;;;;5115601;28;20983;-57
2022/12/17 22:58:36;;;;;;;55.53;30.90;;;-4.80;99.90;;;;;;5115706;28;20872;-58
2022/12/17 23:01:04;;;;;;;57.23;30.70;;;-4.80;99.90;;;;;;5115809;28;20855;-57
2022/12/17 23:03:31;;;;;;;56.43;31.73;;;-4.90;99.90;;;;;;5115572;28;20443;-57
2022/12/17 23:06:08;;;;;;;48.53;31.03;;;-5.10;99.90;;;;;;5115471;28;20511;-58
2022/12/17 23:08:35;;;;;;;46.97;27.43;;;-5.00;99.90;;;;;;5114596;28;20473;-58
2022/12/17 23:11:07;;;;;;;55.23;29.43;;;-4.90;99.90;;;;;;5115422;28;20470;-58
2022/12/17 23:13:35;;;;;;;55.53;29.43;;;-4.90;99.90;;;;;;5115316;28;20431;-57
2022/12/17 23:16:05;;;;;;;57.43;29.23;;;-4.90;99.90;;;;;;5115002;28;20598;-58
2022/12/17 23:18:32;;;;;;;51.57;30.70;;;-4.80;99.90;;;;;;5115365;28;20438;-57
2022/12/17 23:21:08;;;;;;;59.30;28.97;;;-4.90;99.90;;;;;;5114804;28;20463;-58
2022/12/17 23:23:35;;;;;;;44.23;26.47;;;-4.90;99.90;;;;;;5115298;28;20466;-58
2022/12/17 23:26:08;;;;;;;46.93;27.93;;;-4.80;99.90;;;;;;5114905;28;20447;-58
2022/12/17 23:28:38;;;;;;;45.07;27.50;;;-4.80;99.90;;;;;;5115272;28;20419;-58
2022/12/17 23:31:07;;;;;;;48.03;28.70;;;-4.80;99.90;;;;;;5115125;28;20557;-57
2022/12/17 23:33:35;;;;;;;51.07;29.10;;;-4.80;99.90;;;;;;5115101;28;20454;-57
2022/12/17 23:36:04;;;;;;;49.40;26.67;;;-4.90;99.90;;;;;;5114616;28;20485;-57
2022/12/17 23:38:32;;;;;;;42.63;28.47;;;-4.90;99.90;;;;;;5114399;28;20545;-57
2022/12/17 23:41:03;;;;;;;52.10;30.53;;;-5.00;99.90;;;;;;5115136;28;20462;-57
2022/12/17 23:43:31;;;;;;;49.17;28.20;;;-5.00;99.90;;;;;;5114655;28;20427;-58
2022/12/17 23:45:59;;;;;;;53.03;29.10;;;-5.00;99.90;;;;;;5114993;28;20442;-58
2022/12/17 23:48:30;;;;;;;49.50;30.70;;;-5.10;99.90;;;;;;5114868;28;20824;-57
2022/12/17 23:50:58;;;;;;;49.30;29.40;;;-5.20;99.90;;;;;;5114805;28;20465;-58
2022/12/17 23:53:26;;;;;;;45.53;27.70;;;-5.20;99.90;;;;;;5114860;28;20451;-58
2022/12/17 23:55:54;;;;;;;54.90;30.07;;;-5.30;99.90;;;;;;5114832;28;20475;-58
2022/12/17 23:58:22;;;;;;;55.40;29.30;;;-5.40;99.90;;;;;;5114466;28;20446;-58
